• Join FlightAware (Why Join?)
  • Login
  • US Flag 
02:25AM EDT


 

Airport Tracker/Info


-or-


 

Live Flight TrackerFlight Track Log ✈ HPK1812 ✈ 15-May-2013 ✈ KBED - KFRG

Flight Track Log - Related Links

Times and Time Zones

All times are in EDT time to prevent confusion due to time zone crossing. See the HPK1812 flight status page for this flight to view local times or setup timezone preferences in your user account.

Time Position Orientation Groundspeed Altitude Reporting Facility
EDT Latitude Longitude Course Direction KTS MPH feet Rate Location/Type
07:26PM 42.4500 -71.3000 270° West 94 108 1,000  Level KA90
07:26PM 42.4500 -71.3167 270° West 93 107 1,300 1,080 Climbing KA90
07:27PM 42.4333 -71.3333 216° Southwest 95 109 2,500 1,080 Climbing KA90
07:28PM 42.4000 -71.3500 200° South 94 108 3,500 1,020 Climbing KA90
07:29PM 42.3833 -71.3500 180° South 91 105 4,600 900 Climbing KA90
07:30PM 42.3500 -71.3500 180° South 108 124 5,400 660 Climbing KA90
07:31PM 42.3167 -71.3333 160° South 127 146 6,000 240 Climbing KA90
07:32PM 42.2833 -71.3500 200° South 141 162 6,000  Level KA90
07:33PM 42.2500 -71.3833 217° Southwest 122 140 6,000  Level KA90
07:34PM 42.2500 -71.4333 270° West 120 138 6,000 180 Level KA90
07:35PM 42.2317 -71.4867 245° Southwest 115 132 6,500 420 Climbing Boston Center
07:36PM 42.2217 -71.5317 253° West 116 133 7,000 480 Climbing Boston Center
07:37PM 42.2117 -71.5739 252° West 120 138 7,500 480 Climbing Boston Center
07:38PM 42.2078 -71.6019 259° West 122 140 7,900 480 Climbing Boston Center
07:39PM 42.2017 -71.6272 252° West 122 140 8,100 120 Climbing Boston Center
07:40PM 42.1789 -71.6642 230° Southwest 154 177 8,100  Level Boston Center
07:41PM 42.1375 -71.6925 207° Southwest 163 188 8,100  Level Boston Center
07:42PM 42.0958 -71.7128 200° South 161 185 8,100  Level Boston Center
07:43PM 42.0544 -71.7356 202° Southwest 163 188 8,100  Level Boston Center
07:44PM 42.0128 -71.7583 202° Southwest 164 189 8,100  Level Boston Center
07:45PM 41.9692 -71.7839 204° Southwest 161 185 8,100  Level Boston Center
07:46PM 41.9256 -71.8039 199° South 163 188 8,100  Level Boston Center
07:47PM 41.8839 -71.8267 202° Southwest 163 188 8,100  Level Boston Center
07:48PM 41.8425 -71.8494 202° Southwest 163 188 8,100  Level Boston Center
07:49PM 41.7967 -71.8747 202° Southwest 167 192 8,100  Level Boston Center
07:50PM 41.7467 -71.9003 201° Southwest 169 194 8,100  Level Boston Center
07:51PM 41.7031 -71.9231 201° Southwest 169 194 8,100  Level Boston Center
07:52PM 41.6594 -71.9428 199° South 169 194 8,100 -60 Level Boston Center
07:53PM 41.6158 -71.9681 203° Southwest 171 197 8,000 -60 Descending Boston Center
07:54PM 41.5722 -71.9933 203° Southwest 171 197 8,000  Level Boston Center
07:55PM 41.5369 -72.0297 218° Southwest 155 178 8,000  Level Boston Center
07:56PM 41.5058 -72.0686 223° Southwest 152 175 8,000  Level Boston Center
07:57PM 41.4744 -72.1047 221° Southwest 153 176 8,000  Level Boston Center
07:59PM 41.4167 -72.1833 226° Southwest 153 176 8,000  Level New York TRACON
08:00PM 41.3833 -72.2167 217° Southwest 151 174 8,000  Level New York TRACON
08:01PM 41.3500 -72.2500 217° Southwest 153 176 8,000  Level New York TRACON
08:02PM 41.3333 -72.3000 246° West 144 166 8,000  Level New York TRACON
08:03PM 41.3167 -72.3333 236° Southwest 146 168 8,000  Level New York TRACON
08:04PM 41.2833 -72.3833 228° Southwest 147 169 8,000  Level New York TRACON
08:05PM 41.2667 -72.4333 246° West 144 166 8,000  Level New York TRACON
08:06PM 41.2333 -72.4667 217° Southwest 145 167 8,000  Level New York TRACON
08:07PM 41.2167 -72.5167 246° West 145 167 8,000  Level New York TRACON
08:08PM 41.2000 -72.5667 246° West 147 169 8,000  Level New York TRACON
08:09PM 41.1667 -72.6000 217° Southwest 145 167 8,000 -180 Level New York TRACON
08:10PM 41.1500 -72.6500 246° West 158 182 7,700 -360 Descending New York TRACON
08:11PM 41.1167 -72.7000 229° Southwest 152 175 7,300 -480 Descending New York TRACON
08:12PM 41.1000 -72.7500 246° West 156 180 6,800 -540 Descending New York TRACON
08:13PM 41.0667 -72.7833 217° Southwest 155 178 6,300 -480 Descending New York TRACON
08:14PM 41.0333 -72.8500 236° Southwest 156 180 5,800 -540 Descending New York TRACON
08:15PM 41.0167 -72.8833 236° Southwest 148 170 5,300 -540 Descending New York TRACON
08:16PM 41.0000 -72.9333 246° West 144 166 4,800 -540 Descending New York TRACON
08:17PM 40.9667 -72.9667 217° Southwest 137 158 4,300 -540 Descending New York TRACON
08:18PM 40.9500 -73.0000 237° Southwest 134 154 3,800 -540 Descending New York TRACON
08:19PM 40.9333 -73.0500 246° West 130 150 3,300 -420 Descending New York TRACON
08:20PM 40.9167 -73.0833 237° Southwest 127 146 3,000 -180 Descending New York TRACON
08:21PM 40.9000 -73.1167 237° Southwest 113 130 3,000  Level New York TRACON
08:22PM 40.8667 -73.1500 217° Southwest 119 137 3,000  Level New York TRACON
08:23PM 40.8500 -73.1833 237° Southwest 118 136 3,000  Level New York TRACON
08:24PM 40.8333 -73.2333 246° West 117 135 3,000  Level New York TRACON
08:25PM 40.8167 -73.2667 237° Southwest 117 135 3,000 -360 Level New York TRACON
08:26PM 40.8000 -73.3000 237° Southwest 101 116 2,300 -540 Descending New York TRACON
08:27PM 40.8000 -73.3167 270° West 77 89 2,000 -540 Descending New York TRACON
08:28PM 40.7833 -73.3500 237° Southwest 98 113 1,300 -540 Descending New York TRACON
08:29PM 40.7833 -73.3833 270° West 98 113 1,000 -240 Descending New York TRACON
08:30PM 40.7667 -73.4167 237° Southwest 76 87 900 -300 Descending New York TRACON
08:31PM 40.7500 -73.4167 180° South 74 85 500 -480 Descending New York TRACON